createdAt,value
2022-08-26T00:01:31.342Z,100.00
2022-08-26T00:03:58.931Z,100.00
2022-08-26T00:06:26.355Z,100.00
2022-08-26T00:08:54.197Z,100.00
2022-08-26T00:11:26.967Z,100.00
2022-08-26T00:13:55.878Z,100.00
2022-08-26T00:16:25.365Z,100.00
2022-08-26T00:18:53.238Z,100.00
2022-08-26T00:21:20.124Z,100.00
2022-08-26T00:23:46.902Z,100.00
2022-08-26T00:26:14.655Z,100.00
2022-08-26T00:28:41.967Z,100.00
2022-08-26T00:31:10.859Z,100.00
2022-08-26T00:33:38.652Z,100.00
2022-08-26T00:36:06.488Z,100.00
2022-08-26T00:38:33.780Z,100.00
2022-08-26T00:41:00.529Z,100.00
2022-08-26T00:43:30.134Z,100.00
2022-08-26T00:46:28.855Z,100.00
2022-08-26T00:49:03.094Z,100.00
2022-08-26T00:51:31.560Z,100.00
2022-08-26T00:54:04.153Z,100.00
2022-08-26T00:56:38.083Z,100.00
2022-08-26T00:59:10.961Z,100.00
2022-08-26T01:01:41.320Z,100.00
2022-08-26T01:04:09.837Z,100.00
2022-08-26T01:06:36.771Z,100.00
2022-08-26T01:09:04.771Z,100.00
2022-08-26T01:11:32.589Z,100.00
2022-08-26T01:14:02.836Z,100.00
2022-08-26T01:16:30.677Z,100.00
2022-08-26T01:19:03.807Z,100.00
2022-08-26T01:21:57.969Z,100.00
2022-08-26T01:24:27.752Z,100.00
2022-08-26T01:26:58.952Z,100.00
2022-08-26T01:29:26.360Z,100.00
2022-08-26T01:31:58.222Z,100.00
2022-08-26T01:34:37.625Z,100.00
2022-08-26T01:37:15.744Z,100.00
2022-08-26T01:39:44.982Z,100.00
2022-08-26T01:42:14.704Z,100.00
2022-08-26T01:44:51.646Z,100.00
2022-08-26T01:47:21.787Z,100.00
2022-08-26T01:49:51.742Z,100.00
2022-08-26T01:52:24.614Z,100.00
2022-08-26T01:54:57.467Z,100.00
2022-08-26T01:57:25.910Z,100.00
2022-08-26T01:59:57.234Z,100.00
2022-08-26T02:02:25.578Z,100.00
2022-08-26T02:05:02.396Z,100.00
2022-08-26T02:07:30.277Z,100.00
2022-08-26T02:10:00.237Z,100.00
2022-08-26T02:12:27.288Z,100.00
2022-08-26T02:14:58.159Z,100.00
2022-08-26T02:17:55.201Z,100.00
2022-08-26T02:20:26.409Z,100.00
2022-08-26T02:22:53.566Z,100.00
2022-08-26T02:25:27.443Z,100.00
2022-08-26T02:27:56.717Z,100.00
2022-08-26T02:30:28.121Z,100.00
2022-08-26T02:32:55.628Z,100.00
2022-08-26T02:35:23.735Z,100.00
2022-08-26T02:37:52.397Z,100.00
2022-08-26T02:40:24.879Z,100.00
2022-08-26T02:42:53.083Z,100.00
2022-08-26T02:45:23.759Z,100.00
2022-08-26T02:47:52.351Z,100.00
2022-08-26T02:50:20.205Z,100.00
2022-08-26T02:52:48.528Z,100.00
2022-08-26T02:55:15.856Z,100.00
2022-08-26T02:57:42.915Z,100.00
2022-08-26T03:00:11.518Z,100.00
2022-08-26T03:02:38.271Z,100.00
2022-08-26T03:05:05.408Z,100.00
2022-08-26T03:07:32.225Z,100.00
2022-08-26T03:09:59.165Z,100.00
2022-08-26T03:12:26.139Z,100.00
2022-08-26T03:14:53.042Z,100.00
2022-08-26T03:17:19.889Z,100.00
2022-08-26T03:19:47.855Z,100.00
2022-08-26T03:22:18.532Z,100.00
2022-08-26T03:24:47.274Z,100.00
2022-08-26T03:27:14.314Z,100.00
2022-08-26T03:30:00.328Z,100.00
2022-08-26T03:32:28.103Z,100.00
2022-08-26T03:34:56.543Z,100.00
2022-08-26T03:37:23.647Z,100.00
2022-08-26T03:39:50.361Z,100.00
2022-08-26T03:42:17.761Z,100.00
2022-08-26T03:44:48.637Z,100.00
2022-08-26T03:47:15.869Z,100.00
2022-08-26T03:49:42.784Z,100.00
2022-08-26T03:52:10.555Z,100.00
2022-08-26T03:54:37.802Z,100.00
2022-08-26T03:57:04.689Z,100.00
2022-08-26T03:59:32.111Z,100.00
2022-08-26T04:01:58.965Z,100.00
2022-08-26T04:04:25.838Z,100.00
2022-08-26T04:06:57.477Z,100.00
2022-08-26T04:09:24.935Z,100.00
2022-08-26T04:11:51.947Z,100.00
2022-08-26T04:14:24.069Z,100.00
2022-08-26T04:16:52.411Z,100.00
2022-08-26T04:19:20.544Z,100.00
2022-08-26T04:21:49.278Z,100.00
2022-08-26T04:24:17.588Z,100.00
2022-08-26T04:26:44.748Z,100.00
2022-08-26T04:29:15.196Z,100.00
2022-08-26T04:31:42.113Z,100.00
2022-08-26T04:34:11.034Z,100.00
2022-08-26T04:36:38.152Z,100.00
2022-08-26T04:39:05.543Z,100.00
2022-08-26T04:41:33.323Z,100.00
2022-08-26T04:44:01.931Z,100.00
2022-08-26T04:46:28.877Z,100.00
2022-08-26T04:48:55.631Z,100.00
2022-08-26T04:51:28.103Z,100.00
2022-08-26T04:53:57.359Z,100.00
2022-08-26T04:56:26.935Z,100.00
2022-08-26T04:58:53.672Z,100.00
2022-08-26T05:01:21.215Z,100.00
2022-08-26T05:03:49.156Z,100.00
2022-08-26T05:06:16.583Z,100.00
2022-08-26T05:08:45.854Z,100.00
2022-08-26T05:11:13.629Z,100.00
2022-08-26T05:13:40.559Z,100.00
2022-08-26T05:16:11.653Z,100.00
2022-08-26T05:18:39.132Z,100.00
2022-08-26T05:21:07.408Z,100.00
2022-08-26T05:23:36.436Z,100.00
2022-08-26T05:26:08.643Z,100.00
2022-08-26T05:28:36.517Z,100.00
2022-08-26T05:31:12.591Z,100.00
2022-08-26T05:33:42.533Z,100.00
2022-08-26T05:36:11.974Z,100.00
2022-08-26T05:38:40.047Z,100.00
2022-08-26T05:41:15.593Z,100.00
2022-08-26T05:43:43.817Z,100.00
2022-08-26T05:46:11.064Z,100.00
2022-08-26T05:48:38.241Z,100.00
2022-08-26T05:51:08.630Z,100.00
2022-08-26T05:53:37.289Z,100.00
2022-08-26T05:56:05.798Z,100.00
2022-08-26T05:58:34.656Z,100.00
2022-08-26T06:01:07.485Z,100.00
2022-08-26T06:03:38.766Z,100.00
2022-08-26T06:06:15.207Z,100.00
2022-08-26T06:08:47.060Z,100.00
2022-08-26T06:11:18.385Z,100.00
2022-08-26T06:13:46.638Z,100.00
2022-08-26T06:16:17.401Z,100.00
2022-08-26T06:18:45.899Z,100.00
2022-08-26T06:21:25.328Z,100.00
2022-08-26T06:24:12.505Z,100.00
2022-08-26T06:26:39.986Z,100.00
2022-08-26T06:29:09.865Z,100.00
2022-08-26T06:31:37.215Z,100.00
2022-08-26T06:34:10.537Z,100.00
2022-08-26T06:36:39.415Z,100.00
2022-08-26T06:39:09.842Z,98.21
2022-08-26T06:41:41.424Z,97.79
2022-08-26T06:44:10.470Z,96.51
2022-08-26T06:46:37.880Z,95.75
2022-08-26T06:49:05.680Z,95.24
2022-08-26T06:51:36.092Z,92.85
2022-08-26T06:54:05.590Z,92.96
2022-08-26T06:56:36.160Z,92.69
2022-08-26T06:59:04.195Z,92.34
2022-08-26T07:01:37.867Z,93.23
2022-08-26T07:04:07.854Z,91.71
2022-08-26T07:06:40.641Z,89.91
2022-08-26T07:09:10.177Z,89.16
2022-08-26T07:11:38.811Z,89.44
2022-08-26T07:14:06.314Z,89.91
2022-08-26T07:16:34.071Z,89.43
2022-08-26T07:19:03.586Z,88.35
2022-08-26T07:21:40.489Z,86.80
2022-08-26T07:24:08.438Z,86.66
2022-08-26T07:26:38.233Z,87.38
2022-08-26T07:29:05.032Z,88.81
2022-08-26T07:31:39.178Z,84.70
2022-08-26T07:34:07.728Z,84.79
2022-08-26T07:36:34.937Z,85.02
2022-08-26T07:39:01.702Z,84.29
2022-08-26T07:43:57.055Z,85.25
2022-08-26T07:46:30.081Z,83.62
2022-08-26T07:48:58.372Z,83.99
2022-08-26T07:51:26.025Z,83.24
2022-08-26T07:53:54.366Z,85.56
2022-08-26T07:56:23.346Z,82.94
2022-08-26T07:58:51.994Z,81.40
2022-08-26T08:01:20.588Z,82.34
2022-08-26T08:03:50.491Z,81.76
2022-08-26T08:06:22.275Z,80.33
2022-08-26T08:08:50.878Z,78.64
2022-08-26T08:11:22.238Z,73.58
2022-08-26T08:13:56.583Z,71.02
2022-08-26T08:16:28.377Z,76.06
2022-08-26T08:18:59.365Z,71.65
2022-08-26T08:21:28.053Z,68.12
2022-08-26T08:23:57.259Z,68.67
2022-08-26T08:26:25.602Z,71.76
2022-08-26T08:28:56.899Z,68.82
2022-08-26T08:34:14.748Z,70.85
2022-08-26T08:36:41.997Z,71.48
2022-08-26T08:39:09.404Z,69.42
2022-08-26T08:41:48.842Z,65.67
2022-08-26T08:44:21.520Z,66.26
2022-08-26T08:46:54.600Z,66.97
2022-08-26T08:49:23.411Z,67.77
2022-08-26T08:51:56.164Z,65.90
2022-08-26T08:54:23.292Z,67.18
2022-08-26T08:56:53.268Z,66.15
2022-08-26T08:59:26.624Z,64.51
2022-08-26T09:02:11.592Z,64.16
2022-08-26T09:05:02.882Z,64.66
2022-08-26T09:07:46.963Z,62.08
2022-08-26T09:10:32.257Z,63.12
2022-08-26T09:13:02.594Z,62.95
2022-08-26T09:15:58.951Z,62.58
2022-08-26T09:18:40.821Z,63.25
2022-08-26T09:21:11.924Z,61.20
2022-08-26T09:23:42.794Z,61.22
2022-08-26T09:26:25.935Z,63.73
2022-08-26T09:29:05.698Z,61.74
2022-08-26T09:31:39.249Z,63.26
2022-08-26T09:34:17.114Z,62.87
2022-08-26T09:36:53.720Z,60.50
2022-08-26T09:39:23.887Z,59.50
2022-08-26T09:42:11.205Z,59.97
2022-08-26T09:45:01.946Z,62.14
2022-08-26T09:47:37.286Z,61.42
2022-08-26T09:50:09.888Z,61.41
2022-08-26T09:52:40.382Z,59.60
2022-08-26T09:55:22.755Z,60.07
2022-08-26T09:57:54.804Z,59.31
2022-08-26T10:00:34.180Z,59.38
2022-08-26T10:03:09.899Z,60.64
2022-08-26T10:05:59.736Z,59.37
2022-08-26T10:08:37.449Z,59.12
2022-08-26T10:11:11.313Z,57.20
2022-08-26T10:13:43.268Z,59.78
2022-08-26T10:16:23.283Z,56.06
2022-08-26T10:19:01.896Z,56.95
2022-08-26T10:21:42.295Z,57.18
2022-08-26T10:24:15.248Z,56.01
2022-08-26T10:27:11.124Z,56.93
2022-08-26T10:29:48.193Z,55.91
2022-08-26T10:32:40.823Z,56.70
2022-08-26T10:35:12.449Z,57.09
2022-08-26T10:37:43.824Z,56.70
2022-08-26T10:40:16.421Z,58.77
2022-08-26T10:42:53.299Z,54.39
2022-08-26T10:45:25.915Z,55.12
2022-08-26T10:48:11.052Z,55.53
2022-08-26T10:50:41.753Z,55.98
2022-08-26T10:53:17.096Z,54.69
2022-08-26T10:55:58.429Z,53.31
2022-08-26T10:58:53.050Z,54.72
2022-08-26T11:01:43.106Z,54.07
2022-08-26T11:04:12.900Z,54.28
2022-08-26T11:06:40.657Z,51.24
2022-08-26T11:09:08.944Z,52.06
2022-08-26T11:11:41.515Z,51.10
2022-08-26T11:14:29.770Z,53.53
2022-08-26T11:16:59.008Z,53.40
2022-08-26T11:19:59.044Z,52.61
2022-08-26T11:22:47.643Z,53.97
2022-08-26T11:25:24.462Z,54.25
2022-08-26T11:27:59.784Z,53.66
2022-08-26T11:30:36.628Z,53.78
2022-08-26T11:33:03.511Z,53.49
2022-08-26T11:35:37.563Z,50.56
2022-08-26T11:38:28.524Z,53.76
2022-08-26T11:41:00.787Z,54.95
2022-08-26T11:43:31.838Z,55.37
2022-08-26T11:46:11.290Z,55.55
2022-08-26T11:48:47.101Z,58.54
2022-08-26T11:51:23.624Z,60.14
2022-08-26T11:53:51.313Z,56.77
2022-08-26T11:56:27.132Z,56.83
2022-08-26T11:59:02.128Z,59.76
2022-08-26T12:01:40.580Z,53.77
2022-08-26T12:04:17.476Z,59.71
2022-08-26T12:06:51.108Z,57.56
2022-08-26T12:09:26.002Z,56.79
2022-08-26T12:11:57.986Z,57.23
2022-08-26T12:14:27.730Z,58.61
2022-08-26T12:16:54.683Z,58.53
2022-08-26T12:19:28.863Z,59.10
2022-08-26T12:22:17.317Z,58.37
2022-08-26T12:24:53.386Z,57.23
2022-08-26T12:27:26.319Z,56.62
2022-08-26T12:30:02.681Z,56.52
2022-08-26T12:32:31.429Z,54.78
2022-08-26T12:35:01.957Z,52.90
2022-08-26T12:37:33.863Z,56.01
2022-08-26T12:40:25.195Z,55.50
2022-08-26T12:42:52.121Z,53.13
2022-08-26T12:45:29.539Z,55.17
2022-08-26T12:48:02.223Z,57.17
2022-08-26T12:50:32.705Z,54.90
2022-08-26T12:53:07.262Z,52.28
2022-08-26T12:55:42.986Z,55.09
2022-08-26T12:58:31.767Z,55.48
2022-08-26T13:01:04.818Z,58.38
2022-08-26T13:03:34.371Z,58.40
2022-08-26T13:06:22.575Z,54.13
2022-08-26T13:08:52.659Z,55.42
2022-08-26T13:11:21.854Z,55.18
2022-08-26T13:13:53.960Z,53.48
2022-08-26T13:16:22.468Z,56.20
2022-08-26T13:18:51.733Z,55.72
2022-08-26T13:21:21.250Z,55.75
2022-08-26T13:23:49.658Z,55.52
2022-08-26T13:26:16.735Z,57.65
2022-08-26T13:28:43.695Z,58.21
2022-08-26T13:31:14.882Z,59.73
2022-08-26T13:33:44.615Z,55.72
2022-08-26T13:36:12.153Z,57.00
2022-08-26T13:38:39.245Z,57.40
2022-08-26T13:41:06.156Z,57.19
2022-08-26T13:43:32.940Z,60.63
2022-08-26T13:46:00.860Z,57.62
2022-08-26T13:48:27.803Z,57.73
2022-08-26T13:50:54.515Z,55.69
2022-08-26T13:53:21.680Z,57.07
2022-08-26T13:55:48.546Z,57.92
2022-08-26T13:58:15.561Z,57.22
2022-08-26T14:00:42.452Z,55.61
2022-08-26T14:03:13.240Z,55.66
2022-08-26T14:05:40.463Z,54.43
2022-08-26T14:08:07.748Z,56.52
2022-08-26T14:10:34.657Z,59.98
2022-08-26T14:13:01.777Z,62.36
2022-08-26T14:15:28.953Z,63.62
2022-08-26T14:17:56.107Z,65.19
2022-08-26T14:20:29.097Z,61.63
2022-08-26T14:23:13.256Z,60.43
2022-08-26T14:25:40.423Z,60.68
2022-08-26T14:28:07.093Z,61.59
2022-08-26T14:30:34.411Z,59.14
2022-08-26T14:33:01.101Z,61.64
2022-08-26T14:35:30.717Z,63.53
2022-08-26T14:37:57.956Z,64.24
2022-08-26T14:40:29.772Z,65.37
2022-08-26T14:43:04.634Z,63.33
2022-08-26T14:45:31.713Z,63.67
2022-08-26T14:47:59.868Z,65.72
2022-08-26T14:50:26.609Z,64.92
2022-08-26T14:53:11.992Z,64.09
2022-08-26T14:55:42.019Z,68.25
2022-08-26T14:58:12.681Z,67.75
2022-08-26T15:00:39.372Z,68.46
2022-08-26T15:03:06.278Z,71.02
2022-08-26T15:05:33.865Z,71.81
2022-08-26T15:08:00.668Z,71.38
2022-08-26T15:10:27.354Z,71.35
2022-08-26T15:12:54.090Z,71.77
2022-08-26T15:15:20.996Z,72.22
2022-08-26T15:17:47.681Z,71.80
2022-08-26T15:20:16.207Z,73.47
2022-08-26T15:22:43.282Z,68.68
2022-08-26T15:25:10.580Z,72.33
2022-08-26T15:27:37.421Z,72.56
2022-08-26T15:30:10.412Z,73.70
2022-08-26T15:32:37.127Z,74.46
2022-08-26T15:35:08.844Z,73.78
2022-08-26T15:37:36.661Z,74.00
2022-08-26T15:40:04.877Z,73.80
2022-08-26T15:42:31.747Z,76.15
2022-08-26T15:44:58.418Z,74.68
2022-08-26T15:47:25.161Z,75.94
2022-08-26T15:49:51.931Z,74.91
2022-08-26T15:52:18.694Z,74.74
2022-08-26T15:54:45.395Z,76.02
2022-08-26T15:57:14.376Z,76.25
2022-08-26T15:59:42.197Z,75.18
2022-08-26T16:02:09.627Z,75.91
2022-08-26T16:04:36.408Z,77.92
2022-08-26T16:07:03.703Z,80.02
2022-08-26T16:09:30.861Z,80.28
2022-08-26T16:11:58.088Z,81.04
2022-08-26T16:14:25.701Z,82.10
2022-08-26T16:16:52.521Z,82.16
2022-08-26T16:19:19.791Z,82.23
2022-08-26T16:21:46.852Z,81.48
2022-08-26T16:24:14.137Z,81.49
2022-08-26T16:26:42.304Z,81.73
2022-08-26T16:29:12.423Z,81.69
2022-08-26T16:31:39.566Z,82.07
2022-08-26T16:34:07.503Z,82.41
2022-08-26T16:36:38.544Z,82.61
2022-08-26T16:39:07.589Z,82.14
2022-08-26T16:41:35.208Z,82.91
2022-08-26T16:44:02.130Z,84.55
2022-08-26T16:46:29.323Z,84.95
2022-08-26T16:48:58.425Z,85.99
2022-08-26T16:51:27.333Z,86.11
2022-08-26T16:53:57.698Z,86.31
2022-08-26T16:56:33.816Z,86.94
2022-08-26T16:59:03.275Z,87.42
2022-08-26T17:01:30.195Z,87.08
2022-08-26T17:03:57.285Z,87.32
2022-08-26T17:06:24.031Z,87.58
2022-08-26T17:08:50.719Z,88.34
2022-08-26T17:11:17.487Z,89.36
2022-08-26T17:13:44.375Z,89.55
2022-08-26T17:16:12.645Z,90.61
2022-08-26T17:18:39.518Z,90.43
2022-08-26T17:21:10.002Z,90.91
2022-08-26T17:23:37.739Z,91.95
2022-08-26T17:26:04.973Z,92.09
2022-08-26T17:28:32.113Z,92.18
2022-08-26T17:30:59.761Z,92.72
2022-08-26T17:33:27.464Z,92.87
2022-08-26T17:35:54.885Z,92.94
2022-08-26T17:38:22.345Z,92.67
2022-08-26T17:40:49.720Z,93.72
2022-08-26T17:43:17.325Z,93.95
2022-08-26T17:45:44.334Z,94.10
2022-08-26T17:48:11.391Z,94.62
2022-08-26T17:50:39.786Z,95.11
2022-08-26T17:53:06.502Z,95.01
2022-08-26T17:55:33.225Z,94.96
2022-08-26T17:58:00.182Z,96.39
2022-08-26T18:00:30.703Z,96.70
2022-08-26T18:02:57.457Z,96.85
2022-08-26T18:05:24.872Z,97.39
2022-08-26T18:07:52.484Z,96.95
2022-08-26T18:10:20.628Z,97.01
2022-08-26T18:12:47.927Z,96.88
2022-08-26T18:15:18.487Z,97.05
2022-08-26T18:17:45.589Z,97.12
2022-08-26T18:20:19.300Z,97.40
2022-08-26T18:22:47.658Z,97.56
2022-08-26T18:25:15.456Z,97.88
2022-08-26T18:27:42.485Z,98.30
2022-08-26T18:30:16.811Z,98.05
2022-08-26T18:32:44.282Z,98.31
2022-08-26T18:35:12.295Z,98.58
2022-08-26T18:37:39.475Z,98.70
2022-08-26T18:40:08.480Z,99.04
2022-08-26T18:42:35.517Z,98.96
2022-08-26T18:45:03.016Z,100.00
2022-08-26T18:47:30.282Z,100.00
2022-08-26T18:49:57.050Z,100.00
2022-08-26T18:52:24.150Z,100.00
2022-08-26T18:54:51.062Z,100.00
2022-08-26T18:57:17.876Z,100.00
2022-08-26T18:59:44.941Z,100.00
2022-08-26T19:02:11.950Z,100.00
2022-08-26T19:04:39.317Z,100.00
2022-08-26T19:07:06.956Z,100.00
2022-08-26T19:09:34.312Z,100.00
2022-08-26T19:12:04.212Z,100.00
2022-08-26T19:14:31.931Z,100.00
2022-08-26T19:16:58.729Z,100.00
2022-08-26T19:19:25.428Z,100.00
2022-08-26T19:21:52.681Z,100.00
2022-08-26T19:24:20.376Z,100.00
2022-08-26T19:26:53.234Z,100.00
2022-08-26T19:29:26.736Z,100.00
2022-08-26T19:31:53.470Z,100.00
2022-08-26T19:34:20.907Z,100.00
2022-08-26T19:36:48.312Z,100.00
2022-08-26T19:39:15.409Z,100.00
2022-08-26T19:41:42.243Z,100.00
2022-08-26T19:44:33.899Z,100.00
2022-08-26T19:47:01.491Z,100.00
2022-08-26T19:49:28.211Z,100.00
2022-08-26T19:51:54.964Z,100.00
2022-08-26T19:54:24.579Z,100.00
2022-08-26T19:56:51.559Z,100.00
2022-08-26T19:59:18.680Z,100.00
2022-08-26T20:01:45.704Z,100.00
2022-08-26T20:04:21.896Z,100.00
2022-08-26T20:06:48.644Z,100.00
2022-08-26T20:09:22.380Z,100.00
2022-08-26T20:11:50.284Z,100.00
2022-08-26T20:14:19.160Z,100.00
2022-08-26T20:16:49.463Z,100.00
2022-08-26T20:19:37.526Z,100.00
2022-08-26T20:22:05.248Z,100.00
2022-08-26T20:24:32.730Z,100.00
2022-08-26T20:27:02.303Z,100.00
2022-08-26T20:29:32.378Z,100.00
2022-08-26T20:31:59.193Z,100.00
2022-08-26T20:34:26.414Z,100.00
2022-08-26T20:36:53.142Z,100.00
2022-08-26T20:39:21.514Z,100.00
2022-08-26T20:41:49.106Z,100.00
2022-08-26T20:44:17.711Z,100.00
2022-08-26T20:46:45.046Z,100.00
2022-08-26T20:49:13.409Z,100.00
2022-08-26T20:51:40.845Z,100.00
2022-08-26T20:54:07.821Z,100.00
2022-08-26T20:56:35.326Z,100.00
2022-08-26T20:59:02.544Z,100.00
2022-08-26T21:01:34.621Z,100.00
2022-08-26T21:04:07.682Z,100.00
2022-08-26T21:06:35.322Z,100.00
2022-08-26T21:09:04.274Z,100.00
2022-08-26T21:11:30.967Z,100.00
2022-08-26T21:14:06.673Z,100.00
2022-08-26T21:16:36.782Z,100.00
2022-08-26T21:19:09.289Z,100.00
2022-08-26T21:21:36.311Z,100.00
2022-08-26T21:24:03.394Z,100.00
2022-08-26T21:26:30.189Z,100.00
2022-08-26T21:28:56.949Z,100.00
2022-08-26T21:31:25.293Z,100.00
2022-08-26T21:33:52.844Z,100.00
2022-08-26T21:36:20.367Z,100.00
2022-08-26T21:38:47.146Z,100.00
2022-08-26T21:41:18.722Z,100.00
2022-08-26T21:43:46.783Z,100.00
2022-08-26T21:46:19.137Z,100.00
2022-08-26T21:48:50.909Z,100.00
2022-08-26T21:51:20.598Z,100.00
2022-08-26T21:53:47.810Z,100.00
2022-08-26T21:56:16.941Z,100.00
2022-08-26T21:58:44.663Z,100.00
2022-08-26T22:01:14.239Z,100.00
2022-08-26T22:03:47.059Z,100.00
2022-08-26T22:06:19.666Z,100.00
2022-08-26T22:08:46.647Z,100.00
2022-08-26T22:11:14.279Z,100.00
2022-08-26T22:13:42.684Z,100.00
2022-08-26T22:16:11.336Z,100.00
2022-08-26T22:18:39.330Z,100.00
2022-08-26T22:21:08.997Z,100.00
2022-08-26T22:23:37.781Z,100.00
2022-08-26T22:26:06.614Z,100.00
2022-08-26T22:28:33.755Z,100.00
2022-08-26T22:31:01.958Z,100.00
2022-08-26T22:33:29.118Z,100.00
2022-08-26T22:35:56.073Z,100.00
2022-08-26T22:38:24.059Z,100.00
2022-08-26T22:40:56.603Z,100.00
2022-08-26T22:43:28.618Z,100.00
2022-08-26T22:45:57.380Z,100.00
2022-08-26T22:48:26.504Z,100.00
2022-08-26T22:50:59.986Z,100.00
2022-08-26T22:53:27.111Z,100.00
2022-08-26T22:55:54.322Z,100.00
2022-08-26T22:58:30.367Z,100.00
2022-08-26T23:00:59.359Z,100.00
2022-08-26T23:03:26.843Z,100.00
2022-08-26T23:05:55.520Z,100.00
2022-08-26T23:08:23.378Z,100.00
2022-08-26T23:10:50.831Z,100.00
2022-08-26T23:13:18.425Z,100.00
2022-08-26T23:15:46.058Z,100.00
2022-08-26T23:18:14.748Z,100.00
2022-08-26T23:20:42.148Z,100.00
2022-08-26T23:23:09.504Z,100.00
2022-08-26T23:25:36.279Z,100.00
2022-08-26T23:28:03.504Z,100.00
2022-08-26T23:30:32.323Z,100.00
2022-08-26T23:32:59.110Z,100.00
2022-08-26T23:35:26.355Z,100.00
2022-08-26T23:37:53.525Z,100.00
2022-08-26T23:40:32.281Z,100.00
2022-08-26T23:43:01.023Z,100.00
2022-08-26T23:45:27.983Z,100.00
2022-08-26T23:47:55.316Z,100.00
2022-08-26T23:50:44.538Z,100.00
2022-08-26T23:53:17.579Z,100.00
2022-08-26T23:55:44.292Z,100.00
2022-08-26T23:58:11.262Z,100.00
